createdAt,value
2023-01-13T00:01:05.566Z,10
2023-01-13T00:16:05.381Z,10
2023-01-13T00:31:05.678Z,11
2023-01-13T00:46:05.117Z,10
2023-01-13T01:01:05.407Z,12
2023-01-13T01:16:05.238Z,11
2023-01-13T01:31:06.149Z,5
2023-01-13T01:46:05.552Z,5
2023-01-13T02:01:06.248Z,8
2023-01-13T02:16:06.167Z,9
2023-01-13T02:31:05.045Z,7
2023-01-13T02:46:05.371Z,10
2023-01-13T03:01:05.547Z,7
2023-01-13T03:16:05.784Z,7
2023-01-13T03:31:05.590Z,6
2023-01-13T03:46:05.548Z,6
2023-01-13T04:01:06.382Z,10
2023-01-13T04:16:05.731Z,9
2023-01-13T04:31:06.121Z,8
2023-01-13T04:46:05.491Z,10
2023-01-13T05:01:05.890Z,7
2023-01-13T05:16:07.196Z,15
2023-01-13T05:31:05.545Z,13
2023-01-13T05:46:06.078Z,8
2023-01-13T06:01:05.702Z,8
2023-01-13T06:16:05.656Z,11
2023-01-13T06:31:05.899Z,11
2023-01-13T06:46:05.583Z,9
2023-01-13T07:01:06.111Z,8
2023-01-13T07:16:05.822Z,15
2023-01-13T07:31:05.999Z,10
2023-01-13T07:46:05.556Z,10
2023-01-13T08:01:05.806Z,20
2023-01-13T08:16:05.110Z,20
2023-01-13T08:31:05.240Z,14
2023-01-13T08:46:05.304Z,16
2023-01-13T09:01:05.440Z,15
2023-01-13T09:16:05.794Z,9
2023-01-13T09:31:05.095Z,13
2023-01-13T09:46:05.777Z,10
2023-01-13T10:01:05.210Z,11
2023-01-13T10:16:05.680Z,15
2023-01-13T10:31:05.817Z,13
2023-01-13T10:46:05.639Z,15
2023-01-13T11:01:05.448Z,14
2023-01-13T11:16:05.910Z,11
2023-01-13T11:31:05.109Z,14
2023-01-13T11:46:05.319Z,22
2023-01-13T12:01:05.561Z,15
2023-01-13T12:16:05.228Z,13
2023-01-13T12:31:05.733Z,16
2023-01-13T12:46:06.052Z,21
2023-01-13T13:01:05.499Z,20
2023-01-13T13:16:05.178Z,23
2023-01-13T13:31:05.037Z,26
2023-01-13T13:46:05.886Z,23
2023-01-13T14:01:05.182Z,14
2023-01-13T14:16:05.371Z,13
2023-01-13T14:31:05.442Z,31
2023-01-13T14:46:05.597Z,15
2023-01-13T15:01:05.558Z,25
2023-01-13T15:16:05.391Z,25
2023-01-13T15:31:05.452Z,25
2023-01-13T15:46:05.452Z,39
2023-01-13T16:01:05.477Z,19
2023-01-13T16:16:05.570Z,21
2023-01-13T16:31:05.706Z,24
2023-01-13T16:46:05.777Z,26
2023-01-13T17:01:05.171Z,27
2023-01-13T17:16:05.683Z,23
2023-01-13T17:31:05.706Z,22
2023-01-13T17:46:05.835Z,21
2023-01-13T18:01:04.682Z,21
2023-01-13T18:16:05.437Z,29
2023-01-13T18:31:05.596Z,27
2023-01-13T18:46:04.866Z,38
2023-01-13T19:01:04.926Z,40
2023-01-13T19:16:05.726Z,38
2023-01-13T19:31:06.845Z,34
2023-01-13T19:46:05.596Z,31
2023-01-13T20:01:05.874Z,30
2023-01-13T20:16:05.201Z,34
2023-01-13T20:31:05.670Z,36
2023-01-13T20:46:05.476Z,34
2023-01-13T21:01:05.949Z,33
2023-01-13T21:16:05.474Z,30
2023-01-13T21:31:05.408Z,34
2023-01-13T21:46:05.977Z,40
2023-01-13T22:01:05.282Z,40
2023-01-13T22:16:05.482Z,37
2023-01-13T22:31:05.564Z,40
2023-01-13T22:46:05.670Z,34
2023-01-13T23:01:05.726Z,38
2023-01-13T23:16:05.284Z,32
2023-01-13T23:31:05.648Z,39
2023-01-13T23:46:06.035Z,33
